Terminal Aerodrome Forecast
Issued by NWS Amarillo, TX

Home | Current Version | Previous Version | Text Only | Print | Product List | Glossary On
Versions: 1 2 3 4 5 6 7 8 9 10 11 12 13 14 15 16 17 18 19 20 21 22
000
FTUS44 KAMA 302000 AAA
TAFDHT
TAF AMD
KDHT 302057Z 3021/3118 02015G28KT P6SM SCT025 BKN035
      TEMPO 3021/3023 BKN025
     FM310400 04010KT 6SM BR SCT005 BKN100
     FM311400 05010KT P6SM BKN080=

USA.gov is the U.S. government's official web portal to all federal, state and local government web resources and services.